Aviation Digital Data Service (ADDS)

Output produced by METARs form (1952 UTC 26 August 2016)
found at http://aviationweather.gov/adds/metars/
 
KAUG 261720Z 2618/2718 25005KT P6SM SCT025 SCT100